Dar Mlodziezy — SQLZ — position and weather

sailwx.info

Track history (hours):
 
Tides and Currents Weather Stations Pressure Air Temp Water Temp Dewpoint Dewpoint Depression Visibility Wind Speed Wind Dir Waves Ship Positions

Dar Mlodziezy

Training ship for Gdynia Maritime University, Poland.

Ship's website: http://www.am.gdynia.pl/armator/darmlodziezy.php

Last reported at 2017-Mar-22 21:31 UTC. Time now 2017-Mar-22 22:11 UTC.
Position N 51°13' E 004°24'.

Length 95 m; beam 14 m.

Type: Sailing vessel. MMSI: 261148000.

Date/timePositionNaut miles runAvg speedWind from/ knotsBaromVisibWave heightAir tempDewpointWater temp
2017-Mar-22 21:31N 51°13' E 004°24'0 0.0
2017-Mar-22 20:33N 51°13' E 004°24'0 0.0
2017-Mar-22 19:33N 51°13' E 004°24'0 0.0
2017-Mar-22 18:32N 51°13' E 004°24'0 0.0
2017-Mar-22 17:32N 51°13' E 004°24'0 0.0
2017-Mar-22 16:32N 51°13' E 004°24'0 0.0
2017-Mar-22 15:31N 51°13' E 004°24'0 0.0
2017-Mar-22 14:31N 51°13' E 004°24'0 0.0
2017-Mar-22 13:30N 51°13' E 004°24'0 0.0
2017-Mar-22 12:33N 51°13' E 004°24'0 0.0
2017-Mar-22 11:32N 51°13' E 004°24'0 0.0
2017-Mar-22 10:29N 51°13' E 004°24'0 0.0
2017-Mar-22 09:32N 51°13' E 004°24'0 0.0
2017-Mar-22 08:31N 51°13' E 004°24'0 0.0
2017-Mar-22 07:31N 51°13' E 004°24'0 0.0
2017-Mar-22 06:33N 51°13' E 004°24'0 0.0
2017-Mar-22 05:33N 51°13' E 004°24'0 0.0
2017-Mar-22 04:32N 51°13' E 004°24'0 0.0
2017-Mar-22 03:32N 51°13' E 004°24'0 0.0
2017-Mar-22 02:32N 51°13' E 004°24'0 0.0
2017-Mar-22 01:31N 51°13' E 004°24'0 0.0
2017-Mar-22 00:31N 51°13' E 004°24'0 0.0
2017-Mar-21 23:33N 51°13' E 004°24'0 0.0
2017-Mar-21 22:30N 51°13' E 004°24'0 0.0
2017-Mar-21 21:32N 51°13' E 004°24'0 0.0
2017-Mar-21 20:29N 51°13' E 004°24'0 0.0
2017-Mar-21 19:32N 51°13' E 004°24'0 0.0
2017-Mar-21 18:31N 51°13' E 004°24'0 0.0
2017-Mar-21 17:31N 51°13' E 004°24'0 0.0
2017-Mar-21 16:33N 51°13' E 004°24'0 0.0
2017-Mar-21 15:33N 51°13' E 004°24'0 0.0
2017-Mar-21 14:33N 51°13' E 004°24'2 1.9
2017-Mar-21 13:33N 51°14' E 004°21'5 5.2
2017-Mar-21 12:33N 51°19' E 004°16'18 4.6
2017-Mar-21 08:33N 51°21' E 003°47'9 7.2
2017-Mar-21 07:16N 51°26' E 003°35'6 7.9
2017-Mar-21 06:30N 51°30' E 003°27'8 8.0
2017-Mar-21 05:32N 51°37' E 003°22'8 8.0
2017-Mar-21 04:32N 51°44' E 003°15'30 2.7
2017-Mar-20 17:19N 52°13' E 003°25'1 1.1
2017-Mar-20 16:33N 52°14' E 003°25'2 1.9
2017-Mar-20 15:32N 52°16' E 003°25'56 2.9
2017-Mar-19 20:08N 53°05' E 004°10'2 3.0
2017-Mar-19 19:33N 53°06' E 004°12'3 3.0
2017-Mar-19 18:31N 53°08' E 004°16'255 5.5
2017-Mar-17 20:33N 56°50' E 007°52'5 5.3
2017-Mar-17 19:33N 56°55' E 007°58'100 2.9
2017-Mar-16 09:11N 57°50' E 010°34'2 3.3
2017-Mar-16 08:29N 57°49' E 010°38'4 4.1
2017-Mar-16 07:33N 57°47' E 010°44'6 5.7
2017-Mar-16 06:33N 57°42' E 010°40'2 2.4
2017-Mar-16 05:32N 57°41' E 010°36'0 0.0
2017-Mar-16 04:32N 57°41' E 010°36'0 0.0
2017-Mar-16 03:33N 57°41' E 010°36'0 0.0
2017-Mar-16 02:31N 57°41' E 010°36'0 0.0
2017-Mar-16 01:33N 57°41' E 010°36'0 0.0
2017-Mar-16 00:30N 57°41' E 010°36'0 0.0
2017-Mar-15 23:30N 57°41' E 010°36'0 0.0
2017-Mar-15 22:33N 57°41' E 010°36'0 0.0
2017-Mar-15 21:33N 57°41' E 010°36'0 0.0
2017-Mar-15 20:33N 57°41' E 010°36'0 0.0
2017-Mar-15 18:25N 57°41' E 010°36'0 0.0
2017-Mar-15 17:26N 57°41' E 010°36'1 1.2
2017-Mar-15 16:33N 57°42' E 010°37'0 0.1
2017-Mar-15 15:32N 57°42' E 010°37'0 0.0
2017-Mar-15 14:10N 57°42' E 010°37'1 1.7
2017-Mar-15 13:33N 57°42' E 010°38'4 3.9
2017-Mar-15 12:33N 57°41' E 010°45'4 3.5
2017-Mar-15 11:33N 57°40' E 010°52'3 2.6
2017-Mar-15 10:32N 57°39' E 010°56'3 2.6
2017-Mar-15 09:33N 57°39' E 011°01'3 2.9
2017-Mar-15 08:33N 57°38' E 011°06'3 3.0
2017-Mar-15 07:33N 57°36' E 011°11'2 2.4
2017-Mar-15 06:33N 57°35' E 011°14'3 3.1
2017-Mar-15 05:33N 57°32' E 011°18'3 3.3
2017-Mar-15 04:33N 57°30' E 011°22'3 2.9
2017-Mar-15 03:33N 57°28' E 011°26'3 2.7
2017-Mar-15 02:33N 57°26' E 011°28'2 2.2
2017-Mar-15 01:33N 57°23' E 011°30'2 2.2
2017-Mar-15 00:33N 57°21' E 011°31'3 2.8
2017-Mar-14 23:33N 57°19' E 011°33'3 3.1
2017-Mar-14 22:33N 57°16' E 011°35'3 3.0
2017-Mar-14 21:33N 57°13' E 011°37'4 3.2
2017-Mar-14 20:22N 57°09' E 011°39'7 3.2
2017-Mar-14 18:15N 57°03' E 011°44'55 4.7
2017-Mar-14 06:33N 56°12' E 012°21'3 2.7
2017-Mar-14 05:25N 56°10' E 012°26'3 3.4
2017-Mar-14 04:34N 56°08' E 012°30'4 3.7
2017-Mar-14 03:34N 56°06' E 012°35'4 3.6
2017-Mar-14 02:34N 56°03' E 012°39'5 4.8
2017-Mar-14 01:34N 55°59' E 012°41'4 4.0
2017-Mar-14 00:34N 55°55' E 012°39'4 3.9
2017-Mar-13 23:34N 55°51' E 012°41'4 4.0
2017-Mar-13 22:34N 55°47' E 012°43'4 4.3
2017-Mar-13 21:34N 55°43' E 012°41'5 5.1
2017-Mar-13 20:34N 55°38' E 012°42'6 6.2
2017-Mar-13 19:34N 55°32' E 012°43'26 2.9
2017-Mar-13 10:31N 55°11' E 013°12'3 3.4
2017-Mar-13 09:29N 55°10' E 013°17'6 3.2
2017-Mar-13 07:29N 55°07' E 013°27'3 2.9
2017-Mar-13 06:33N 55°06' E 013°32'3 3.0
2017-Mar-13 05:32N 55°05' E 013°37'3 2.6
2017-Mar-13 04:20N 55°04' E 013°42'2 2.9
2017-Mar-13 03:33N 55°03' E 013°45'4 3.5
2017-Mar-13 02:20N 55°01' E 013°52'3 3.1
2017-Mar-13 01:26N 55°00' E 013°57'2 2.5
2017-Mar-13 00:32N 54°60' E 014°00'2 2.4
2017-Mar-12 23:33N 54°59' E 014°05'2 2.3
2017-Mar-12 22:33N 54°59' E 014°09'3 2.6
2017-Mar-12 21:32N 54°58' E 014°13'  
Track history (hours):
 
Tides and Currents Weather Stations Pressure Air Temp Water Temp Dewpoint Dewpoint Depression Visibility Wind Speed Wind Dir Waves Ship Positions

Dar Mlodziezy

Training ship for Gdynia Maritime University, Poland.

Ship's website: http://www.am.gdynia.pl/armator/darmlodziezy.php

Last reported at 2017-Mar-22 21:31 UTC. Time now 2017-Mar-22 22:11 UTC.
Position N 51°13' E 004°24'.

Length 95 m; beam 14 m.

Type: Sailing vessel. MMSI: 261148000.

Date/timePositionNaut miles runAvg speedWind from/ knotsBaromVisibWave heightAir tempDewpointWater temp
2017-Mar-22 21:31N 51°13' E 004°24'0 0.0
2017-Mar-22 20:33N 51°13' E 004°24'0 0.0
2017-Mar-22 19:33N 51°13' E 004°24'0 0.0
2017-Mar-22 18:32N 51°13' E 004°24'0 0.0
2017-Mar-22 17:32N 51°13' E 004°24'0 0.0
2017-Mar-22 16:32N 51°13' E 004°24'0 0.0
2017-Mar-22 15:31N 51°13' E 004°24'0 0.0
2017-Mar-22 14:31N 51°13' E 004°24'0 0.0
2017-Mar-22 13:30N 51°13' E 004°24'0 0.0
2017-Mar-22 12:33N 51°13' E 004°24'0 0.0
2017-Mar-22 11:32N 51°13' E 004°24'0 0.0
2017-Mar-22 10:29N 51°13' E 004°24'0 0.0
2017-Mar-22 09:32N 51°13' E 004°24'0 0.0
2017-Mar-22 08:31N 51°13' E 004°24'0 0.0
2017-Mar-22 07:31N 51°13' E 004°24'0 0.0
2017-Mar-22 06:33N 51°13' E 004°24'0 0.0
2017-Mar-22 05:33N 51°13' E 004°24'0 0.0
2017-Mar-22 04:32N 51°13' E 004°24'0 0.0
2017-Mar-22 03:32N 51°13' E 004°24'0 0.0
2017-Mar-22 02:32N 51°13' E 004°24'0 0.0
2017-Mar-22 01:31N 51°13' E 004°24'0 0.0
2017-Mar-22 00:31N 51°13' E 004°24'0 0.0
2017-Mar-21 23:33N 51°13' E 004°24'0 0.0
2017-Mar-21 22:30N 51°13' E 004°24'0 0.0
2017-Mar-21 21:32N 51°13' E 004°24'0 0.0
2017-Mar-21 20:29N 51°13' E 004°24'0 0.0
2017-Mar-21 19:32N 51°13' E 004°24'0 0.0
2017-Mar-21 18:31N 51°13' E 004°24'0 0.0
2017-Mar-21 17:31N 51°13' E 004°24'0 0.0
2017-Mar-21 16:33N 51°13' E 004°24'0 0.0
2017-Mar-21 15:33N 51°13' E 004°24'0 0.0
2017-Mar-21 14:33N 51°13' E 004°24'2 1.9
2017-Mar-21 13:33N 51°14' E 004°21'5 5.2
2017-Mar-21 12:33N 51°19' E 004°16'18 4.6
2017-Mar-21 08:33N 51°21' E 003°47'9 7.2
2017-Mar-21 07:16N 51°26' E 003°35'6 7.9
2017-Mar-21 06:30N 51°30' E 003°27'8 8.0
2017-Mar-21 05:32N 51°37' E 003°22'8 8.0
2017-Mar-21 04:32N 51°44' E 003°15'30 2.7
2017-Mar-20 17:19N 52°13' E 003°25'1 1.1
2017-Mar-20 16:33N 52°14' E 003°25'2 1.9
2017-Mar-20 15:32N 52°16' E 003°25'56 2.9
2017-Mar-19 20:08N 53°05' E 004°10'2 3.0
2017-Mar-19 19:33N 53°06' E 004°12'3 3.0
2017-Mar-19 18:31N 53°08' E 004°16'255 5.5
2017-Mar-17 20:33N 56°50' E 007°52'5 5.3
2017-Mar-17 19:33N 56°55' E 007°58'100 2.9
2017-Mar-16 09:11N 57°50' E 010°34'2 3.3
2017-Mar-16 08:29N 57°49' E 010°38'4 4.1
2017-Mar-16 07:33N 57°47' E 010°44'6 5.7
2017-Mar-16 06:33N 57°42' E 010°40'2 2.4
2017-Mar-16 05:32N 57°41' E 010°36'0 0.0
2017-Mar-16 04:32N 57°41' E 010°36'0 0.0
2017-Mar-16 03:33N 57°41' E 010°36'0 0.0
2017-Mar-16 02:31N 57°41' E 010°36'0 0.0
2017-Mar-16 01:33N 57°41' E 010°36'0 0.0
2017-Mar-16 00:30N 57°41' E 010°36'0 0.0
2017-Mar-15 23:30N 57°41' E 010°36'0 0.0
2017-Mar-15 22:33N 57°41' E 010°36'0 0.0
2017-Mar-15 21:33N 57°41' E 010°36'0 0.0
2017-Mar-15 20:33N 57°41' E 010°36'0 0.0
2017-Mar-15 18:25N 57°41' E 010°36'0 0.0
2017-Mar-15 17:26N 57°41' E 010°36'1 1.2
2017-Mar-15 16:33N 57°42' E 010°37'0 0.1
2017-Mar-15 15:32N 57°42' E 010°37'0 0.0
2017-Mar-15 14:10N 57°42' E 010°37'1 1.7
2017-Mar-15 13:33N 57°42' E 010°38'4 3.9
2017-Mar-15 12:33N 57°41' E 010°45'4 3.5
2017-Mar-15 11:33N 57°40' E 010°52'3 2.6
2017-Mar-15 10:32N 57°39' E 010°56'3 2.6
2017-Mar-15 09:33N 57°39' E 011°01'3 2.9
2017-Mar-15 08:33N 57°38' E 011°06'3 3.0
2017-Mar-15 07:33N 57°36' E 011°11'2 2.4
2017-Mar-15 06:33N 57°35' E 011°14'3 3.1
2017-Mar-15 05:33N 57°32' E 011°18'3 3.3
2017-Mar-15 04:33N 57°30' E 011°22'3 2.9
2017-Mar-15 03:33N 57°28' E 011°26'3 2.7
2017-Mar-15 02:33N 57°26' E 011°28'2 2.2
2017-Mar-15 01:33N 57°23' E 011°30'2 2.2
2017-Mar-15 00:33N 57°21' E 011°31'3 2.8
2017-Mar-14 23:33N 57°19' E 011°33'3 3.1
2017-Mar-14 22:33N 57°16' E 011°35'3 3.0
2017-Mar-14 21:33N 57°13' E 011°37'4 3.2
2017-Mar-14 20:22N 57°09' E 011°39'7 3.2
2017-Mar-14 18:15N 57°03' E 011°44'55 4.7
2017-Mar-14 06:33N 56°12' E 012°21'3 2.7
2017-Mar-14 05:25N 56°10' E 012°26'3 3.4
2017-Mar-14 04:34N 56°08' E 012°30'4 3.7
2017-Mar-14 03:34N 56°06' E 012°35'4 3.6
2017-Mar-14 02:34N 56°03' E 012°39'5 4.8
2017-Mar-14 01:34N 55°59' E 012°41'4 4.0
2017-Mar-14 00:34N 55°55' E 012°39'4 3.9
2017-Mar-13 23:34N 55°51' E 012°41'4 4.0
2017-Mar-13 22:34N 55°47' E 012°43'4 4.3
2017-Mar-13 21:34N 55°43' E 012°41'5 5.1
2017-Mar-13 20:34N 55°38' E 012°42'6 6.2
2017-Mar-13 19:34N 55°32' E 012°43'26 2.9
2017-Mar-13 10:31N 55°11' E 013°12'3 3.4
2017-Mar-13 09:29N 55°10' E 013°17'6 3.2
2017-Mar-13 07:29N 55°07' E 013°27'3 2.9
2017-Mar-13 06:33N 55°06' E 013°32'3 3.0
2017-Mar-13 05:32N 55°05' E 013°37'3 2.6
2017-Mar-13 04:20N 55°04' E 013°42'2 2.9
2017-Mar-13 03:33N 55°03' E 013°45'4 3.5
2017-Mar-13 02:20N 55°01' E 013°52'3 3.1
2017-Mar-13 01:26N 55°00' E 013°57'2 2.5
2017-Mar-13 00:32N 54°60' E 014°00'2 2.4
2017-Mar-12 23:33N 54°59' E 014°05'2 2.3
2017-Mar-12 22:33N 54°59' E 014°09'3 2.6
2017-Mar-12 21:32N 54°58' E 014°13'  

Dump ship's entire track history